createdAt,value
2017-04-16T00:00:56.924Z,8.40
2017-04-16T00:01:56.004Z,8.40
2017-04-16T00:02:54.454Z,8.40
2017-04-16T00:03:54.320Z,8.30
2017-04-16T00:04:53.380Z,8.30
2017-04-16T00:05:52.423Z,8.30
2017-04-16T00:06:51.447Z,8.30
2017-04-16T00:07:51.244Z,8.20
2017-04-16T00:08:50.393Z,8.20
2017-04-16T00:09:49.579Z,8.20
2017-04-16T00:10:48.803Z,8.20
2017-04-16T00:11:47.908Z,8.20
2017-04-16T00:12:46.341Z,8.10
2017-04-16T00:13:45.558Z,8.10
2017-04-16T00:14:43.911Z,8.10
2017-04-16T00:15:43.099Z,8.10
2017-04-16T00:16:42.936Z,8.10
2017-04-16T00:17:42.052Z,8.10
2017-04-16T00:18:41.275Z,8.10
2017-04-16T00:19:40.340Z,8.00
2017-04-16T00:20:39.508Z,8.00
2017-04-16T00:21:37.971Z,8.00
2017-04-16T00:22:37.113Z,8.00
2017-04-16T00:23:36.333Z,8.00
2017-04-16T00:24:36.256Z,8.00
2017-04-16T00:25:35.411Z,8.00
2017-04-16T00:26:34.599Z,8.00
2017-04-16T00:27:34.396Z,8.00
2017-04-16T00:28:33.576Z,7.90
2017-04-16T00:29:32.676Z,7.90
2017-04-16T00:30:32.042Z,7.90
2017-04-16T00:31:31.195Z,7.80
2017-04-16T00:32:30.486Z,7.80
2017-04-16T00:33:29.604Z,7.80
2017-04-16T00:34:28.696Z,7.80
2017-04-16T00:35:27.839Z,7.80
2017-04-16T00:36:27.056Z,7.80
2017-04-16T00:37:26.155Z,7.80
2017-04-16T00:38:25.338Z,7.70
2017-04-16T00:39:24.458Z,7.70
2017-04-16T00:40:23.503Z,7.70
2017-04-16T00:41:22.712Z,7.70
2017-04-16T00:42:21.195Z,7.70
2017-04-16T00:43:21.136Z,7.70
2017-04-16T00:44:20.229Z,7.70
2017-04-16T00:45:19.356Z,7.80
2017-04-16T00:46:18.507Z,7.80
2017-04-16T00:47:17.608Z,7.80
2017-04-16T00:48:16.884Z,7.70
2017-04-16T00:49:15.964Z,7.70
2017-04-16T00:50:15.872Z,7.70
2017-04-16T00:51:14.219Z,7.70
2017-04-16T00:52:13.397Z,7.70
2017-04-16T00:53:13.685Z,7.70
2017-04-16T00:54:12.872Z,7.60
2017-04-16T00:55:12.031Z,7.60
2017-04-16T00:56:11.151Z,7.50
2017-04-16T00:57:10.341Z,7.50
2017-04-16T00:58:09.589Z,7.60
2017-04-16T00:59:08.764Z,7.50
2017-04-16T01:00:08.152Z,7.60
2017-04-16T01:02:16.367Z,7.60
2017-04-16T01:03:15.653Z,7.60
2017-04-16T01:04:14.043Z,7.60
2017-04-16T01:05:13.175Z,7.50
2017-04-16T01:06:12.281Z,7.50
2017-04-16T01:07:11.385Z,7.60
2017-04-16T01:08:09.935Z,7.60
2017-04-16T01:09:09.014Z,7.60
2017-04-16T01:10:08.199Z,7.60
2017-04-16T01:11:07.391Z,7.50
2017-04-16T01:12:06.668Z,7.50
2017-04-16T01:13:05.795Z,7.50
2017-04-16T01:14:04.988Z,7.50
2017-04-16T01:15:04.099Z,7.50
2017-04-16T01:16:03.183Z,7.50
2017-04-16T01:17:02.362Z,7.50
2017-04-16T01:18:01.536Z,7.60
2017-04-16T01:19:00.636Z,7.50
2017-04-16T01:19:59.812Z,7.50
2017-04-16T01:20:58.784Z,7.50
2017-04-16T01:21:57.820Z,7.50
2017-04-16T01:22:56.963Z,7.50
2017-04-16T01:23:55.408Z,7.50
2017-04-16T01:24:54.503Z,7.50
2017-04-16T01:25:53.652Z,7.50
2017-04-16T01:26:52.801Z,7.50
2017-04-16T01:27:51.967Z,7.50
2017-04-16T01:28:51.051Z,7.40
2017-04-16T01:29:49.560Z,7.40
2017-04-16T01:30:49.430Z,7.50
2017-04-16T01:31:48.603Z,7.40
2017-04-16T01:32:47.706Z,7.40
2017-04-16T01:33:46.847Z,7.40
2017-04-16T01:34:46.004Z,7.40
2017-04-16T01:35:45.079Z,7.30
2017-04-16T01:36:44.175Z,7.30
2017-04-16T01:37:43.329Z,7.30
2017-04-16T01:38:42.432Z,7.30
2017-04-16T01:39:41.572Z,7.30
2017-04-16T01:40:39.968Z,7.30
2017-04-16T01:41:38.403Z,7.30
2017-04-16T01:42:38.236Z,7.30
2017-04-16T01:43:36.656Z,7.30
2017-04-16T01:44:35.715Z,7.30
2017-04-16T01:45:34.833Z,7.20
2017-04-16T01:46:34.037Z,7.20
2017-04-16T01:47:33.562Z,7.30
2017-04-16T01:48:32.819Z,7.30
2017-04-16T01:49:31.920Z,7.30
2017-04-16T01:50:31.128Z,7.30
2017-04-16T01:51:30.257Z,7.30
2017-04-16T01:52:29.428Z,7.30
2017-04-16T01:53:28.579Z,7.40
2017-04-16T01:54:27.772Z,7.30
2017-04-16T01:55:26.911Z,7.30
2017-04-16T01:56:26.128Z,7.30
2017-04-16T01:57:26.076Z,7.30
2017-04-16T01:58:25.343Z,7.30
2017-04-16T01:59:24.576Z,7.30
2017-04-16T02:00:24.474Z,7.30
2017-04-16T02:01:24.413Z,7.30
2017-04-16T02:02:23.628Z,7.30
2017-04-16T02:03:22.800Z,7.30
2017-04-16T02:04:21.995Z,7.30
2017-04-16T02:05:21.091Z,7.30
2017-04-16T02:06:20.192Z,7.30
2017-04-16T02:07:23.723Z,7.20
2017-04-16T02:08:23.685Z,7.30
2017-04-16T02:09:22.876Z,7.30
2017-04-16T02:10:21.347Z,7.30
2017-04-16T02:11:19.908Z,7.30
2017-04-16T02:12:19.100Z,7.30
2017-04-16T02:13:18.216Z,7.30
2017-04-16T02:14:17.212Z,7.20
2017-04-16T02:15:16.441Z,7.20
2017-04-16T02:16:15.591Z,7.20
2017-04-16T02:17:14.742Z,7.20
2017-04-16T02:18:14.544Z,7.10
2017-04-16T02:19:14.948Z,7.10
2017-04-16T02:20:13.379Z,7.20
2017-04-16T02:21:12.519Z,7.00
2017-04-16T02:22:11.660Z,7.00
2017-04-16T02:23:10.803Z,6.90
2017-04-16T02:24:09.891Z,6.90
2017-04-16T02:25:09.153Z,6.90
2017-04-16T02:26:08.243Z,6.90
2017-04-16T02:27:07.383Z,6.90
2017-04-16T02:28:06.495Z,6.90
2017-04-16T02:29:05.594Z,6.90
2017-04-16T02:30:04.843Z,7.00
2017-04-16T02:31:04.056Z,6.90
2017-04-16T02:32:03.212Z,6.90
2017-04-16T02:33:02.477Z,6.90
2017-04-16T02:34:01.580Z,6.90
2017-04-16T02:35:00.688Z,6.80
2017-04-16T02:35:59.805Z,6.80
2017-04-16T02:36:58.935Z,6.70
2017-04-16T02:37:58.073Z,6.70
2017-04-16T02:38:57.958Z,6.70
2017-04-16T02:39:57.060Z,6.70
2017-04-16T02:40:56.210Z,6.70
2017-04-16T02:41:54.661Z,6.70
2017-04-16T02:42:53.900Z,6.70
2017-04-16T02:43:53.013Z,6.70
2017-04-16T02:44:52.127Z,6.60
2017-04-16T02:45:51.240Z,6.70
2017-04-16T02:46:50.352Z,6.60
2017-04-16T02:47:49.452Z,6.60
2017-04-16T02:48:48.645Z,6.60
2017-04-16T02:49:48.501Z,6.60
2017-04-16T02:50:47.706Z,6.60
2017-04-16T02:51:46.979Z,6.60
2017-04-16T02:52:46.109Z,6.60
2017-04-16T02:53:45.366Z,6.60
2017-04-16T02:54:44.539Z,6.60
2017-04-16T02:55:44.128Z,6.60
2017-04-16T02:56:43.400Z,6.60
2017-04-16T02:57:42.577Z,6.60
2017-04-16T02:58:41.807Z,6.50
2017-04-16T02:59:40.988Z,6.50
2017-04-16T03:00:40.221Z,6.50
2017-04-16T03:01:39.316Z,6.50
2017-04-16T03:02:38.553Z,6.50
2017-04-16T03:03:37.675Z,6.40
2017-04-16T03:04:36.777Z,6.40
2017-04-16T03:05:35.920Z,6.40
2017-04-16T03:06:35.060Z,6.30
2017-04-16T03:07:34.204Z,6.30
2017-04-16T03:08:33.433Z,6.30
2017-04-16T03:09:32.607Z,6.30
2017-04-16T03:10:31.076Z,6.20
2017-04-16T03:11:30.187Z,6.30
2017-04-16T03:12:29.325Z,6.20
2017-04-16T03:13:28.523Z,6.20
2017-04-16T03:14:27.584Z,6.20
2017-04-16T03:15:26.804Z,6.20
2017-04-16T03:16:25.995Z,6.20
2017-04-16T03:17:25.083Z,6.30
2017-04-16T03:18:24.252Z,6.20
2017-04-16T03:19:23.412Z,6.20
2017-04-16T03:20:22.507Z,6.20
2017-04-16T03:21:21.786Z,6.10
2017-04-16T03:22:20.940Z,6.10
2017-04-16T03:23:20.093Z,6.10
2017-04-16T03:24:19.189Z,6.10
2017-04-16T03:25:18.264Z,6.00
2017-04-16T03:26:17.395Z,6.00
2017-04-16T03:27:16.595Z,6.00
2017-04-16T03:28:15.745Z,5.90
2017-04-16T03:29:15.276Z,5.90
2017-04-16T03:30:15.159Z,5.90
2017-04-16T03:31:14.669Z,5.90
2017-04-16T03:32:13.791Z,5.90
2017-04-16T03:33:12.892Z,5.80
2017-04-16T03:34:12.046Z,5.80
2017-04-16T03:35:11.194Z,5.80
2017-04-16T03:36:10.241Z,5.70
2017-04-16T03:37:09.428Z,5.70
2017-04-16T03:38:08.544Z,5.70
2017-04-16T03:39:07.628Z,5.70
2017-04-16T03:40:06.779Z,5.70
2017-04-16T03:41:05.912Z,5.70
2017-04-16T03:42:05.021Z,5.60
2017-04-16T03:43:04.365Z,5.60
2017-04-16T03:44:03.533Z,5.60
2017-04-16T03:45:02.020Z,5.60
2017-04-16T03:46:01.176Z,5.60
2017-04-16T03:47:00.335Z,5.60
2017-04-16T03:47:59.369Z,5.50
2017-04-16T03:48:58.452Z,5.50
2017-04-16T03:49:57.561Z,5.40
2017-04-16T03:50:56.685Z,5.40
2017-04-16T03:51:55.790Z,5.40
2017-04-16T03:52:54.860Z,5.30
2017-04-16T03:53:54.171Z,5.30
2017-04-16T03:54:53.164Z,5.30
2017-04-16T03:55:52.288Z,5.30
2017-04-16T03:56:50.615Z,5.30
2017-04-16T03:57:49.840Z,5.30
2017-04-16T03:58:49.001Z,5.30
2017-04-16T03:59:48.111Z,5.30
2017-04-16T04:00:46.516Z,5.30
2017-04-16T04:01:45.993Z,5.30
2017-04-16T04:02:45.568Z,5.30
2017-04-16T04:03:44.699Z,5.20
2017-04-16T04:04:44.608Z,5.20
2017-04-16T04:05:43.079Z,5.20
2017-04-16T04:06:42.280Z,5.20
2017-04-16T04:07:41.368Z,5.20
2017-04-16T04:08:40.488Z,5.10
2017-04-16T04:09:39.605Z,5.10
2017-04-16T04:10:38.623Z,5.10
2017-04-16T04:11:37.756Z,5.10
2017-04-16T04:12:36.932Z,5.00
2017-04-16T04:13:36.092Z,5.00
2017-04-16T04:14:34.480Z,5.00
2017-04-16T04:15:32.973Z,5.10
2017-04-16T04:16:32.078Z,5.10
2017-04-16T04:17:31.529Z,5.10
2017-04-16T04:18:30.724Z,5.00
2017-04-16T04:19:29.900Z,5.00
2017-04-16T04:20:29.003Z,5.00
2017-04-16T04:21:28.111Z,4.90
2017-04-16T04:22:26.468Z,4.90
2017-04-16T04:23:24.868Z,4.90
2017-04-16T04:24:23.964Z,4.80
2017-04-16T04:25:23.032Z,4.80
2017-04-16T04:26:22.209Z,4.80
2017-04-16T04:27:21.332Z,4.80
2017-04-16T04:28:20.478Z,4.80
2017-04-16T04:29:19.679Z,4.80
2017-04-16T04:30:19.352Z,4.80
2017-04-16T04:31:18.561Z,4.80
2017-04-16T04:32:18.364Z,4.80
2017-04-16T04:33:17.572Z,4.80
2017-04-16T04:34:16.893Z,4.80
2017-04-16T04:35:15.959Z,4.80
2017-04-16T04:36:15.217Z,4.80
2017-04-16T04:37:14.637Z,4.80
2017-04-16T04:38:13.750Z,4.80
2017-04-16T04:39:12.913Z,4.80
2017-04-16T04:40:12.047Z,4.80
2017-04-16T04:41:11.032Z,4.80
2017-04-16T04:42:09.363Z,4.80
2017-04-16T04:43:08.486Z,4.80
2017-04-16T04:44:07.647Z,4.80
2017-04-16T04:45:07.514Z,4.80
2017-04-16T04:46:06.686Z,4.70
2017-04-16T04:47:05.061Z,4.70
2017-04-16T04:48:04.175Z,4.80
2017-04-16T04:49:03.305Z,4.80
2017-04-16T04:50:02.440Z,4.80
2017-04-16T04:51:01.582Z,4.80
2017-04-16T04:52:00.685Z,4.70
2017-04-16T04:52:59.835Z,4.70
2017-04-16T04:53:58.968Z,4.70
2017-04-16T04:54:58.124Z,4.70
2017-04-16T04:55:57.999Z,4.70
2017-04-16T04:56:57.057Z,4.70
2017-04-16T04:57:56.199Z,4.60
2017-04-16T04:58:55.317Z,4.60
2017-04-16T04:59:54.572Z,4.60
2017-04-16T05:00:53.724Z,4.60
2017-04-16T05:01:52.799Z,4.60
2017-04-16T05:02:51.968Z,4.60
2017-04-16T05:03:51.099Z,4.60
2017-04-16T05:04:50.211Z,4.60
2017-04-16T05:05:49.367Z,4.60
2017-04-16T05:06:48.556Z,4.70
2017-04-16T05:07:47.681Z,4.70
2017-04-16T05:08:46.796Z,4.70
2017-04-16T05:09:45.949Z,4.70
2017-04-16T05:10:45.243Z,4.60
2017-04-16T05:11:45.465Z,4.60
2017-04-16T05:12:44.575Z,4.60
2017-04-16T05:13:43.656Z,4.70
2017-04-16T05:14:42.708Z,4.70
2017-04-16T05:15:41.827Z,4.70
2017-04-16T05:16:40.942Z,4.80
2017-04-16T05:17:40.048Z,4.80
2017-04-16T05:18:39.217Z,4.80
2017-04-16T05:19:38.269Z,4.90
2017-04-16T05:20:37.495Z,4.90
2017-04-16T05:21:36.601Z,4.90
2017-04-16T05:22:35.716Z,4.90
2017-04-16T05:23:35.536Z,4.80
2017-04-16T05:24:34.712Z,4.80
2017-04-16T05:25:33.863Z,4.90
2017-04-16T05:26:32.964Z,4.90
2017-04-16T05:27:32.048Z,5.00
2017-04-16T05:28:31.236Z,5.00
2017-04-16T05:29:29.591Z,5.00
2017-04-16T05:30:28.680Z,5.20
2017-04-16T05:31:28.589Z,5.10
2017-04-16T05:32:27.617Z,5.20
2017-04-16T05:33:27.471Z,5.20
2017-04-16T05:34:26.608Z,5.20
2017-04-16T05:35:25.843Z,5.30
2017-04-16T05:36:24.925Z,5.30
2017-04-16T05:37:24.804Z,5.40
2017-04-16T05:38:23.939Z,5.40
2017-04-16T05:39:23.115Z,5.50
2017-04-16T05:40:22.224Z,5.50
2017-04-16T05:41:21.320Z,5.50
2017-04-16T05:42:20.355Z,5.60
2017-04-16T05:43:19.476Z,5.60
2017-04-16T05:44:18.596Z,5.70
2017-04-16T05:45:16.912Z,5.60
2017-04-16T05:46:15.923Z,5.70
2017-04-16T05:47:15.188Z,5.80
2017-04-16T05:48:14.695Z,5.80
2017-04-16T05:49:14.217Z,5.90
2017-04-16T05:50:12.688Z,5.90
2017-04-16T05:51:11.705Z,6.00
2017-04-16T05:52:10.779Z,6.10
2017-04-16T05:53:09.840Z,6.20
2017-04-16T05:54:08.896Z,6.30
2017-04-16T05:55:07.995Z,6.30
2017-04-16T05:56:07.073Z,6.30
2017-04-16T05:57:06.196Z,6.40
2017-04-16T05:58:05.719Z,6.40
2017-04-16T05:59:04.808Z,6.50
2017-04-16T06:00:03.299Z,6.50
2017-04-16T06:01:02.403Z,6.60
2017-04-16T06:02:01.491Z,6.70
2017-04-16T06:03:00.617Z,6.70
2017-04-16T06:03:59.661Z,6.80
2017-04-16T06:04:58.747Z,6.90
2017-04-16T06:05:58.652Z,7.00
2017-04-16T06:06:57.676Z,7.00
2017-04-16T06:07:56.779Z,7.00
2017-04-16T06:08:55.953Z,7.10
2017-04-16T06:09:55.153Z,7.20
2017-04-16T06:10:53.444Z,7.10
2017-04-16T06:11:52.519Z,7.30
2017-04-16T06:12:51.663Z,7.40
2017-04-16T06:13:50.140Z,7.30
2017-04-16T06:14:49.264Z,7.40
2017-04-16T06:15:48.440Z,7.50
2017-04-16T06:16:47.548Z,7.50
2017-04-16T06:17:46.635Z,7.50
2017-04-16T06:18:45.790Z,7.50
2017-04-16T06:19:44.848Z,7.60
2017-04-16T06:20:43.987Z,7.60
2017-04-16T06:21:43.095Z,7.70
2017-04-16T06:22:42.952Z,7.70
2017-04-16T06:23:42.033Z,7.80
2017-04-16T06:24:40.383Z,7.70
2017-04-16T06:25:39.596Z,7.90
2017-04-16T06:26:38.695Z,7.90
2017-04-16T06:27:38.484Z,8.00
2017-04-16T06:28:38.363Z,8.00
2017-04-16T06:29:37.448Z,8.00
2017-04-16T06:30:36.515Z,8.10
2017-04-16T06:31:35.721Z,8.10
2017-04-16T06:32:34.052Z,8.10
2017-04-16T06:33:33.096Z,8.20
2017-04-16T06:34:32.471Z,8.20
2017-04-16T06:35:31.604Z,8.30
2017-04-16T06:36:30.668Z,8.30
2017-04-16T06:37:29.716Z,8.30
2017-04-16T06:38:28.863Z,8.40
2017-04-16T06:39:28.068Z,8.50
2017-04-16T06:40:27.379Z,8.50
2017-04-16T06:41:26.580Z,8.60
2017-04-16T06:42:25.680Z,8.60
2017-04-16T06:43:24.727Z,8.60
2017-04-16T06:44:24.608Z,8.70
2017-04-16T06:45:23.749Z,8.70
2017-04-16T06:46:23.660Z,8.70
2017-04-16T06:47:23.468Z,8.70
2017-04-16T06:48:22.548Z,8.80
2017-04-16T06:49:21.716Z,9.00
2017-04-16T06:50:20.071Z,8.90
2017-04-16T06:51:19.184Z,9.10
2017-04-16T06:52:18.470Z,9.10
2017-04-16T06:53:17.656Z,9.10
2017-04-16T06:54:16.819Z,9.10
2017-04-16T06:55:15.794Z,9.10
2017-04-16T06:56:14.793Z,9.10
2017-04-16T06:57:14.051Z,9.20
2017-04-16T06:58:13.208Z,9.10
2017-04-16T06:59:13.037Z,9.10
2017-04-16T07:00:12.196Z,9.10
2017-04-16T07:01:11.360Z,9.00
2017-04-16T07:02:10.430Z,9.00
2017-04-16T07:03:09.539Z,9.10
2017-04-16T07:04:08.490Z,9.20
2017-04-16T07:05:07.648Z,9.20
2017-04-16T07:06:06.724Z,9.20
2017-04-16T07:07:05.843Z,9.30
2017-04-16T07:08:04.932Z,9.30
2017-04-16T07:09:04.359Z,9.40
2017-04-16T07:10:03.585Z,9.50
2017-04-16T07:11:03.499Z,9.50
2017-04-16T07:12:02.580Z,9.50
2017-04-16T07:13:01.700Z,9.60
2017-04-16T07:14:00.815Z,9.60
2017-04-16T07:15:00.675Z,9.60
2017-04-16T07:15:59.815Z,9.70
2017-04-16T07:16:58.936Z,9.70
2017-04-16T07:17:58.819Z,9.70
2017-04-16T07:18:57.760Z,9.80
2017-04-16T07:19:56.891Z,9.90
2017-04-16T07:20:55.915Z,10.00
2017-04-16T07:21:55.067Z,10.10
2017-04-16T07:22:54.192Z,10.10
2017-04-16T07:23:53.243Z,10.20
2017-04-16T07:24:52.461Z,10.20
2017-04-16T07:25:51.593Z,10.20
2017-04-16T07:26:50.661Z,10.30
2017-04-16T07:27:49.732Z,10.20
2017-04-16T07:28:48.893Z,10.30
2017-04-16T07:29:48.072Z,10.40
2017-04-16T07:30:47.123Z,10.50
2017-04-16T07:31:46.301Z,10.60
2017-04-16T07:32:45.355Z,10.70
2017-04-16T07:33:45.148Z,10.90
2017-04-16T07:34:44.684Z,11.10
2017-04-16T07:35:43.751Z,11.10
2017-04-16T07:36:42.712Z,11.30
2017-04-16T07:37:42.716Z,11.40
2017-04-16T07:38:41.876Z,11.40
2017-04-16T07:39:41.011Z,11.50
2017-04-16T07:40:40.204Z,11.60
2017-04-16T07:41:39.315Z,11.60
2017-04-16T07:42:38.410Z,11.60
2017-04-16T07:43:37.630Z,11.70
2017-04-16T07:44:36.696Z,11.80
2017-04-16T07:45:35.771Z,11.90
2017-04-16T07:46:34.880Z,12.00
2017-04-16T07:47:34.184Z,12.00
2017-04-16T07:48:34.146Z,12.00
2017-04-16T07:49:33.324Z,12.00
2017-04-16T07:50:32.493Z,12.00
2017-04-16T07:51:31.638Z,11.90
2017-04-16T07:52:30.656Z,12.00
2017-04-16T07:53:29.724Z,12.00
2017-04-16T07:54:28.748Z,12.00
2017-04-16T07:55:28.523Z,11.90
2017-04-16T07:56:27.612Z,11.80
2017-04-16T07:57:26.745Z,11.70
2017-04-16T07:58:25.925Z,11.70
2017-04-16T07:59:25.031Z,11.70
2017-04-16T08:00:24.172Z,11.60
2017-04-16T08:01:23.968Z,11.70
2017-04-16T08:02:23.140Z,11.60
2017-04-16T08:03:22.301Z,11.60
2017-04-16T08:04:21.452Z,11.60
2017-04-16T08:05:20.607Z,11.50
2017-04-16T08:06:19.740Z,11.50
2017-04-16T08:07:19.221Z,11.50
2017-04-16T08:08:18.189Z,11.50
2017-04-16T08:09:16.535Z,11.50
2017-04-16T08:10:16.143Z,11.50
2017-04-16T08:11:15.235Z,11.60
2017-04-16T08:12:15.284Z,11.60
2017-04-16T08:13:14.397Z,11.70
2017-04-16T08:14:13.512Z,11.70
2017-04-16T08:15:12.504Z,11.70
2017-04-16T08:16:12.456Z,11.70
2017-04-16T08:17:11.520Z,11.70
2017-04-16T08:18:10.624Z,11.70
2017-04-16T08:19:09.713Z,11.70
2017-04-16T08:20:08.855Z,11.70
2017-04-16T08:21:07.991Z,11.70
2017-04-16T08:22:07.092Z,11.70
2017-04-16T08:23:06.175Z,11.80
2017-04-16T08:24:05.352Z,11.80
2017-04-16T08:25:04.506Z,11.80
2017-04-16T08:26:03.620Z,11.90
2017-04-16T08:27:02.692Z,11.90
2017-04-16T08:28:01.774Z,12.00
2017-04-16T08:29:00.874Z,12.00
2017-04-16T08:29:59.968Z,12.00
2017-04-16T08:30:59.049Z,12.00
2017-04-16T08:31:58.839Z,12.00
2017-04-16T08:32:57.933Z,12.00
2017-04-16T08:33:57.062Z,12.00
2017-04-16T08:34:56.224Z,12.10
2017-04-16T08:35:54.972Z,12.10
2017-04-16T08:36:53.309Z,12.10
2017-04-16T08:37:52.468Z,12.20
2017-04-16T08:38:51.540Z,12.30
2017-04-16T08:39:50.653Z,12.20
2017-04-16T08:40:49.753Z,12.20
2017-04-16T08:41:48.876Z,12.30
2017-04-16T08:42:47.991Z,12.30
2017-04-16T08:43:47.274Z,12.30
2017-04-16T08:44:46.432Z,12.30
2017-04-16T08:45:45.639Z,12.30
2017-04-16T08:46:44.720Z,12.30
2017-04-16T08:47:44.004Z,12.30
2017-04-16T08:48:43.153Z,12.30
2017-04-16T08:49:42.380Z,12.20
2017-04-16T08:50:41.481Z,12.20
2017-04-16T08:51:40.642Z,12.20
2017-04-16T08:52:39.786Z,12.10
2017-04-16T08:53:38.922Z,12.10
2017-04-16T08:54:38.040Z,12.10
2017-04-16T08:55:37.152Z,12.20
2017-04-16T08:56:36.288Z,12.20
2017-04-16T08:57:35.448Z,12.20
2017-04-16T08:58:33.743Z,12.20
2017-04-16T08:59:32.851Z,12.30
2017-04-16T09:00:32.015Z,12.30
2017-04-16T09:01:31.156Z,12.40
2017-04-16T09:02:30.240Z,12.40
2017-04-16T09:03:29.420Z,12.40
2017-04-16T09:04:28.555Z,12.30
2017-04-16T09:05:27.623Z,12.30
2017-04-16T09:06:26.943Z,12.30
2017-04-16T09:07:26.020Z,12.40
2017-04-16T09:08:24.377Z,12.30
2017-04-16T09:09:23.433Z,12.40
2017-04-16T09:10:22.637Z,12.30
2017-04-16T09:11:21.764Z,12.40
2017-04-16T09:12:20.905Z,12.40
2017-04-16T09:13:20.008Z,12.50
2017-04-16T09:14:19.212Z,12.50
2017-04-16T09:15:18.320Z,12.60
2017-04-16T09:16:17.419Z,12.60
2017-04-16T09:17:16.601Z,12.60
2017-04-16T09:18:15.778Z,12.60
2017-04-16T09:19:14.093Z,12.60
2017-04-16T09:20:13.195Z,12.60
2017-04-16T09:21:11.668Z,12.50
2017-04-16T09:22:10.800Z,12.50
2017-04-16T09:23:09.896Z,12.60
2017-04-16T09:24:09.064Z,12.60
2017-04-16T09:25:08.064Z,12.60
2017-04-16T09:26:07.998Z,12.50
2017-04-16T09:27:07.147Z,12.60
2017-04-16T09:28:06.212Z,12.60
2017-04-16T09:29:05.206Z,12.70
2017-04-16T09:30:04.284Z,12.70
2017-04-16T09:31:03.448Z,12.70
2017-04-16T09:32:02.503Z,12.70
2017-04-16T09:33:01.580Z,12.70
2017-04-16T09:34:00.653Z,12.70
2017-04-16T09:34:59.639Z,12.70
2017-04-16T09:35:58.611Z,12.80
2017-04-16T09:36:57.620Z,12.70
2017-04-16T09:37:56.773Z,12.70
2017-04-16T09:38:55.952Z,12.70
2017-04-16T09:39:54.997Z,12.70
2017-04-16T09:40:54.156Z,12.80
2017-04-16T09:41:53.264Z,12.90
2017-04-16T09:42:52.472Z,13.00
2017-04-16T09:43:51.553Z,13.10
2017-04-16T09:44:50.602Z,13.10
2017-04-16T09:45:49.679Z,13.20
2017-04-16T09:46:47.967Z,13.20
2017-04-16T09:47:47.017Z,13.20
2017-04-16T09:48:46.120Z,13.20
2017-04-16T09:49:45.092Z,13.10
2017-04-16T09:50:44.219Z,13.00
2017-04-16T09:51:43.293Z,12.90
2017-04-16T09:52:42.431Z,12.90
2017-04-16T09:53:41.512Z,12.80
2017-04-16T09:54:40.584Z,12.70
2017-04-16T09:55:39.724Z,12.60
2017-04-16T09:56:38.773Z,12.70
2017-04-16T09:57:38.042Z,12.70
2017-04-16T09:58:37.229Z,12.70
2017-04-16T09:59:36.280Z,12.80
2017-04-16T10:00:34.582Z,12.80
2017-04-16T10:01:32.891Z,12.80
2017-04-16T10:02:32.016Z,12.80
2017-04-16T10:03:31.055Z,12.70
2017-04-16T10:04:30.036Z,12.70
2017-04-16T10:05:29.220Z,12.60
2017-04-16T10:06:29.030Z,12.50
2017-04-16T10:07:27.416Z,12.50
2017-04-16T10:08:26.543Z,12.50
2017-04-16T10:09:25.679Z,12.40
2017-04-16T10:10:24.791Z,12.40
2017-04-16T10:11:25.384Z,12.40
2017-04-16T10:12:24.508Z,12.40
2017-04-16T10:13:22.960Z,12.40
2017-04-16T10:14:22.144Z,12.20
2017-04-16T10:15:21.231Z,12.20
2017-04-16T10:16:21.072Z,12.20
2017-04-16T10:17:20.184Z,12.30
2017-04-16T10:18:19.491Z,12.20
2017-04-16T10:19:18.779Z,12.20
2017-04-16T10:20:17.948Z,12.10
2017-04-16T10:21:17.035Z,12.10
2017-04-16T10:22:15.521Z,12.10
2017-04-16T10:23:14.913Z,11.90
2017-04-16T10:24:13.283Z,11.90
2017-04-16T10:25:12.400Z,12.00
2017-04-16T10:26:11.552Z,12.00
2017-04-16T10:27:10.664Z,11.90
2017-04-16T10:28:09.746Z,12.00
2017-04-16T10:29:08.835Z,11.80
2017-04-16T10:30:07.924Z,11.80
2017-04-16T10:31:07.033Z,11.80
2017-04-16T10:32:05.368Z,11.80
2017-04-16T10:33:05.235Z,11.50
2017-04-16T10:34:04.296Z,11.60
2017-04-16T10:35:03.367Z,11.50
2017-04-16T10:36:02.544Z,11.50
2017-04-16T10:37:01.676Z,11.50
2017-04-16T10:38:01.557Z,11.50
2017-04-16T10:39:00.757Z,11.50
2017-04-16T10:39:59.920Z,11.50
2017-04-16T10:40:58.268Z,11.50
2017-04-16T10:41:57.376Z,11.40
2017-04-16T10:42:56.497Z,11.30
2017-04-16T10:43:55.504Z,11.20
2017-04-16T10:44:54.692Z,11.20
2017-04-16T10:45:53.764Z,11.20
2017-04-16T10:46:52.877Z,11.10
2017-04-16T10:47:51.952Z,11.10
2017-04-16T10:48:51.151Z,11.00
2017-04-16T10:49:50.317Z,11.00
2017-04-16T10:50:48.640Z,11.00
2017-04-16T10:51:47.723Z,11.00
2017-04-16T10:52:46.861Z,11.00
2017-04-16T10:53:45.249Z,11.00
2017-04-16T10:54:44.435Z,10.90
2017-04-16T10:55:43.904Z,10.90
2017-04-16T10:56:43.095Z,10.90
2017-04-16T10:57:43.008Z,10.90
2017-04-16T10:58:42.176Z,10.90
2017-04-16T10:59:41.301Z,11.00
2017-04-16T11:00:40.377Z,11.00
2017-04-16T11:01:39.648Z,11.10
2017-04-16T11:02:38.699Z,11.10
2017-04-16T11:03:39.160Z,11.10
2017-04-16T11:04:38.205Z,11.10
2017-04-16T11:05:37.324Z,11.20
2017-04-16T11:06:36.404Z,11.10
2017-04-16T11:07:35.650Z,11.10
2017-04-16T11:08:34.917Z,11.10
2017-04-16T11:09:34.065Z,11.00
2017-04-16T11:10:34.024Z,10.90
2017-04-16T11:11:33.228Z,10.90
2017-04-16T11:12:32.240Z,10.80
2017-04-16T11:13:31.429Z,10.80
2017-04-16T11:14:30.664Z,10.90
2017-04-16T11:15:30.599Z,10.80
2017-04-16T11:16:30.564Z,10.70
2017-04-16T11:17:29.688Z,10.70
2017-04-16T11:18:28.800Z,10.70
2017-04-16T11:19:27.992Z,10.70
2017-04-16T11:20:27.180Z,10.60
2017-04-16T11:21:26.288Z,10.60
2017-04-16T11:22:26.196Z,10.70
2017-04-16T11:23:25.305Z,10.60
2017-04-16T11:24:24.375Z,10.60
2017-04-16T11:25:23.513Z,10.60
2017-04-16T11:26:22.619Z,10.50
2017-04-16T11:27:22.088Z,10.50
2017-04-16T11:28:20.460Z,10.40
2017-04-16T11:29:19.597Z,10.30
2017-04-16T11:30:18.736Z,10.20
2017-04-16T11:31:17.894Z,10.20
2017-04-16T11:32:17.031Z,10.20
2017-04-16T11:33:16.104Z,10.20
2017-04-16T11:34:15.256Z,10.20
2017-04-16T11:35:14.319Z,10.20
2017-04-16T11:36:13.511Z,10.20
2017-04-16T11:37:12.616Z,10.20
2017-04-16T11:38:11.736Z,10.30
2017-04-16T11:39:10.823Z,10.30
2017-04-16T11:40:10.009Z,10.30
2017-04-16T11:41:09.856Z,10.30
2017-04-16T11:42:08.994Z,10.30
2017-04-16T11:43:08.033Z,10.30
2017-04-16T11:44:07.146Z,10.40
2017-04-16T11:45:05.524Z,10.30
2017-04-16T11:46:04.600Z,10.30
2017-04-16T11:47:03.671Z,10.40
2017-04-16T11:48:02.756Z,10.30
2017-04-16T11:49:01.869Z,10.40
2017-04-16T11:50:01.058Z,10.40
2017-04-16T11:51:00.135Z,10.50
2017-04-16T11:51:59.956Z,10.50
2017-04-16T11:52:58.349Z,10.50
2017-04-16T11:53:57.436Z,10.60
2017-04-16T11:54:56.607Z,10.70
2017-04-16T11:55:55.724Z,10.70
2017-04-16T11:56:54.835Z,10.80
2017-04-16T11:57:53.802Z,11.00
2017-04-16T11:58:52.859Z,11.10
2017-04-16T11:59:52.010Z,11.30
2017-04-16T12:00:51.219Z,11.50
2017-04-16T12:01:50.396Z,11.60
2017-04-16T12:02:49.435Z,11.70
2017-04-16T12:03:49.156Z,11.90
2017-04-16T12:04:48.299Z,12.00
2017-04-16T12:05:46.748Z,12.00
2017-04-16T12:06:45.959Z,12.40
2017-04-16T12:07:44.264Z,12.40
2017-04-16T12:08:43.363Z,12.80
2017-04-16T12:09:42.496Z,12.90
2017-04-16T12:10:41.610Z,13.10
2017-04-16T12:11:40.731Z,13.20
2017-04-16T12:12:39.135Z,13.20
2017-04-16T12:13:38.228Z,13.50
2017-04-16T12:14:37.295Z,13.60
2017-04-16T12:15:36.432Z,13.70
2017-04-16T12:16:34.880Z,13.70
2017-04-16T12:17:34.032Z,13.90
2017-04-16T12:18:32.336Z,13.90
2017-04-16T12:19:31.339Z,13.80
2017-04-16T12:20:30.439Z,13.90
2017-04-16T12:21:28.800Z,13.90
2017-04-16T12:22:27.939Z,14.10
2017-04-16T12:23:26.989Z,14.30
2017-04-16T12:24:26.170Z,14.30
2017-04-16T12:25:25.292Z,14.30
2017-04-16T12:26:24.483Z,14.30
2017-04-16T12:27:23.537Z,14.30
2017-04-16T12:28:22.725Z,14.40
2017-04-16T12:29:21.868Z,14.50
2017-04-16T12:30:21.691Z,14.60
2017-04-16T12:31:21.619Z,14.80
2017-04-16T12:32:20.696Z,15.10
2017-04-16T12:33:19.805Z,15.30
2017-04-16T12:34:18.995Z,15.50
2017-04-16T12:35:18.109Z,15.70
2017-04-16T12:36:17.314Z,15.90
2017-04-16T12:37:16.353Z,16.10
2017-04-16T12:38:15.446Z,16.20
2017-04-16T12:39:13.827Z,16.20
2017-04-16T12:40:12.932Z,16.00
2017-04-16T12:41:12.601Z,15.90
2017-04-16T12:42:11.715Z,15.80
2017-04-16T12:43:10.760Z,15.60
2017-04-16T12:44:09.876Z,15.50
2017-04-16T12:45:09.078Z,15.50
2017-04-16T12:46:07.396Z,15.50
2017-04-16T12:47:06.579Z,15.30
2017-04-16T12:48:06.460Z,15.20
2017-04-16T12:49:05.561Z,15.10
2017-04-16T12:50:04.728Z,15.00
2017-04-16T12:51:03.832Z,14.90
2017-04-16T12:52:02.876Z,14.90
2017-04-16T12:53:01.951Z,14.80
2017-04-16T12:54:01.075Z,14.70
2017-04-16T12:55:00.139Z,14.50
2017-04-16T12:55:59.240Z,14.30
2017-04-16T12:56:58.352Z,14.10
2017-04-16T12:57:56.761Z,14.10